Portada
METAR-TAF:

METAR-TAF

Aeropuertos :

Aeropuerto de Melilla

Melilla, España

latitud: 35-17N, longitud: 002-57W, altitud: 47 m

Observación

El informe se hizo hace 31 minutos, a las 22:30 UTC
Viento calma
Temperatura 12°C
Humedad 62%
Presión 1026 hPa
Visibilidad 10 km o más

METAR: GEML 152230Z AUTO 00000KT 9999 NCD 12/05 Q1026

Hora: 00:01 (23:01 UTC)

Pronóstico

El informe se hizo hace 3 horas y 1 minutos, a las 20:00 UTC
Pronóstico válido del 15 a las 21 UTC al 16 a las 21 UTC
Viento 3 kt con dirección variable
Visibilidad 10 km o más
sin nubes por debajo de 1500 m y sin presencia de cumulonimbus.
Evolucionando progresivamente
del 16 a las 06 UTC al 16 a las 09 UTC
Viento 10 kt del oeste
Probabilidad 30% :
Temporalmente
del 16 a las 12 UTC al 16 a las 18 UTC
Viento 15 kt del oeste con ráfagas de 25 kt

TAF: GEML 152000Z 1521/1621 VRB03KT CAVOK TX19/1614Z TN11/1607Z BECMG 1606/1609 26010KT PROB30 TEMPO 1612/1618 28015G25KT

Observaciones y pronósticos meteorológicos de más de 4000 aeropuertos (mensajes METAR y TAF).

Los puntos amarillos y rojos representan las estaciones disponibles.

Ponga el ratón en el punto deseado para ver el nombre de la estación.

Haga clic para ver las observaciones y los pronósticos meteorológicos.

Para cambiar el mapa : haga clic en los botones verdes con una cruz de color negro para hacer un zoom, en el botón verde con un guión para alejar o en las flechas verdes para mapas adyacentes.


METAR-TAF: